La Sarnosa, Argentina
Current Conditions -  °F | °C
As of 7:00 AM on Tuesday 27 Jan 2015 (Local Time) from SARE Reporting Station
Clear Clear  
Wind Chill: 24°   Ceiling: Unl
Heat Index: 24°   Visibility: 5mi
Dew Point: 23°   Wind: 1mph
Humidity: 94%   Direction: 20°NNE
Pressure: 29.8"   Gusts: NA
Location:  29.23°S, 60.42°W
Report Text: SARE 271000Z 02001KT 8000 NSC 24/23 Q1009
Loading
Personal Weather Stations






























Interactive Weather Map New forecast layout! Learn more

10-Day Weather Forecast

Advertisements
Track Severe Weather on mobile